createdAt,value
2023-03-18T00:00:46.850Z,28.38
2023-03-18T00:03:14.698Z,27.58
2023-03-18T00:05:42.922Z,27.63
2023-03-18T00:08:10.980Z,31.30
2023-03-18T00:10:39.732Z,29.83
2023-03-18T00:13:07.686Z,26.65
2023-03-18T00:15:37.743Z,29.20
2023-03-18T00:18:06.543Z,28.30
2023-03-18T00:20:39.425Z,28.98
2023-03-18T00:23:08.774Z,26.77
2023-03-18T00:25:37.119Z,25.42
2023-03-18T00:28:06.566Z,28.48
2023-03-18T00:30:38.563Z,31.70
2023-03-18T00:33:07.107Z,31.50
2023-03-18T00:35:36.362Z,37.72
2023-03-18T00:38:07.671Z,38.50
2023-03-18T00:40:53.225Z,32.88
2023-03-18T00:43:22.708Z,33.67
2023-03-18T00:45:51.913Z,36.10
2023-03-18T00:48:19.708Z,35.65
2023-03-18T00:50:47.891Z,27.33
2023-03-18T00:53:15.689Z,28.08
2023-03-18T00:55:44.199Z,30.88
2023-03-18T00:58:12.736Z,38.08
2023-03-18T01:00:41.644Z,35.95
2023-03-18T01:03:10.844Z,32.53
2023-03-18T01:05:39.709Z,39.22
2023-03-18T01:08:07.893Z,36.22
2023-03-18T01:10:35.740Z,37.65
2023-03-18T01:13:03.514Z,34.78
2023-03-18T01:15:31.382Z,37.97
2023-03-18T01:17:59.693Z,35.90
2023-03-18T01:20:29.380Z,34.88
2023-03-18T01:22:58.583Z,32.67
2023-03-18T01:25:27.291Z,31.92
2023-03-18T01:27:55.684Z,38.13
2023-03-18T01:30:24.648Z,32.17
2023-03-18T01:32:52.585Z,34.92
2023-03-18T01:35:20.557Z,32.50
2023-03-18T01:37:49.733Z,30.42
2023-03-18T01:40:18.098Z,38.42
2023-03-18T01:42:49.731Z,28.85
2023-03-18T01:45:21.873Z,32.22
2023-03-18T01:47:50.826Z,37.35
2023-03-18T01:50:21.945Z,30.60
2023-03-18T01:52:55.556Z,39.15
2023-03-18T01:55:26.887Z,34.13
2023-03-18T01:57:55.627Z,31.98
2023-03-18T02:00:23.647Z,27.02
2023-03-18T02:02:53.672Z,29.65
2023-03-18T02:07:53.724Z,32.42
2023-03-18T02:10:24.125Z,40.03
2023-03-18T02:12:58.133Z,32.35
2023-03-18T02:15:27.806Z,32.35
2023-03-18T02:18:00.047Z,30.00
2023-03-18T02:20:46.349Z,32.38
2023-03-18T02:23:23.583Z,30.65
2023-03-18T02:25:57.343Z,34.85
2023-03-18T02:28:29.577Z,33.15
2023-03-18T02:31:01.373Z,32.20
2023-03-18T02:33:34.743Z,38.75
2023-03-18T02:36:05.986Z,44.58
2023-03-18T02:38:34.182Z,40.40
2023-03-18T02:41:02.075Z,41.13
2023-03-18T02:43:33.636Z,46.95
2023-03-18T02:46:18.448Z,44.25
2023-03-18T02:48:47.722Z,41.03
2023-03-18T02:51:17.195Z,42.08
2023-03-18T02:53:45.944Z,46.03
2023-03-18T02:56:14.043Z,48.25
2023-03-18T02:58:44.217Z,43.15
2023-03-18T03:01:12.532Z,50.38
2023-03-18T03:03:41.067Z,54.47
2023-03-18T03:06:09.672Z,52.38
2023-03-18T03:08:37.848Z,54.63
2023-03-18T03:11:06.422Z,56.00
2023-03-18T03:13:34.141Z,43.85
2023-03-18T03:16:03.871Z,54.20
2023-03-18T03:18:31.697Z,48.30
2023-03-18T03:20:59.696Z,54.88
2023-03-18T03:23:27.955Z,50.42
2023-03-18T03:25:56.210Z,51.55
2023-03-18T03:28:24.246Z,58.78
2023-03-18T03:30:52.294Z,47.97
2023-03-18T03:33:21.783Z,48.95
2023-03-18T03:35:49.615Z,55.03
2023-03-18T03:38:17.582Z,55.33
2023-03-18T03:40:45.745Z,61.33
2023-03-18T03:43:14.029Z,55.58
2023-03-18T03:45:42.059Z,54.47
2023-03-18T03:48:10.544Z,49.72
2023-03-18T03:50:40.410Z,52.70
2023-03-18T03:53:08.155Z,60.08
2023-03-18T03:55:35.997Z,53.10
2023-03-18T03:58:04.437Z,53.70
2023-03-18T04:00:33.237Z,56.85
2023-03-18T04:03:01.354Z,52.67
2023-03-18T04:05:29.654Z,61.78
2023-03-18T04:07:59.989Z,51.45
2023-03-18T04:10:29.102Z,54.22
2023-03-18T04:12:56.930Z,47.38
2023-03-18T04:15:24.627Z,49.15
2023-03-18T04:17:52.367Z,59.92
2023-03-18T04:20:20.896Z,52.38
2023-03-18T04:22:49.279Z,46.30
2023-03-18T04:25:18.770Z,52.83
2023-03-18T04:27:46.746Z,58.05
2023-03-18T04:30:15.335Z,54.78
2023-03-18T04:32:43.235Z,53.22
2023-03-18T04:35:11.900Z,53.67
2023-03-18T04:37:39.622Z,60.53
2023-03-18T04:40:09.020Z,54.10
2023-03-18T04:42:38.568Z,52.17
2023-03-18T04:45:08.139Z,56.15
2023-03-18T04:47:36.046Z,58.47
2023-03-18T04:50:04.627Z,61.70
2023-03-18T04:52:33.672Z,51.15
2023-03-18T04:55:01.693Z,57.10
2023-03-18T04:57:29.654Z,62.90
2023-03-18T04:59:59.121Z,56.03
2023-03-18T05:02:26.891Z,57.97
2023-03-18T05:04:54.647Z,65.35
2023-03-18T05:07:22.659Z,61.88
2023-03-18T05:09:50.570Z,59.80
2023-03-18T05:12:18.365Z,56.97
2023-03-18T05:14:46.372Z,52.15
2023-03-18T05:17:16.874Z,59.03
2023-03-18T05:19:46.496Z,68.78
2023-03-18T05:22:16.442Z,59.60
2023-03-18T05:24:46.042Z,64.13
2023-03-18T05:27:14.866Z,65.65
2023-03-18T05:29:43.313Z,60.15
2023-03-18T05:32:12.696Z,66.10
2023-03-18T05:34:42.971Z,64.10
2023-03-18T05:37:13.212Z,59.83
2023-03-18T05:39:43.718Z,62.50
2023-03-18T05:42:14.202Z,68.60
2023-03-18T05:44:42.160Z,59.85
2023-03-18T05:47:10.381Z,62.65
2023-03-18T05:49:38.400Z,64.72
2023-03-18T05:52:07.613Z,65.57
2023-03-18T05:54:35.476Z,71.13
2023-03-18T05:57:03.230Z,71.15
2023-03-18T05:59:31.552Z,65.40
2023-03-18T06:01:59.470Z,59.95
2023-03-18T06:04:27.828Z,64.82
2023-03-18T06:06:57.002Z,68.30
2023-03-18T06:09:27.355Z,62.60
2023-03-18T06:11:55.247Z,68.20
2023-03-18T06:14:25.929Z,57.10
2023-03-18T06:16:54.268Z,70.13
2023-03-18T06:19:22.974Z,65.72
2023-03-18T06:21:50.946Z,69.93
2023-03-18T06:24:18.806Z,69.60
2023-03-18T06:26:47.865Z,67.05
2023-03-18T06:29:15.622Z,63.90
2023-03-18T06:31:43.440Z,65.82
2023-03-18T06:34:11.219Z,64.65
2023-03-18T06:36:38.973Z,69.85
2023-03-18T06:39:06.811Z,61.53
2023-03-18T06:41:34.951Z,71.38
2023-03-18T06:44:04.169Z,78.35
2023-03-18T06:46:32.309Z,70.80
2023-03-18T06:49:01.553Z,72.70
2023-03-18T06:51:29.378Z,68.32
2023-03-18T06:53:58.018Z,71.13
2023-03-18T06:56:25.773Z,68.03
2023-03-18T06:58:54.353Z,70.03
2023-03-18T07:01:23.597Z,69.28
2023-03-18T07:03:51.581Z,71.00
2023-03-18T07:06:19.786Z,65.93
2023-03-18T07:08:47.627Z,79.65
2023-03-18T07:11:16.710Z,68.00
2023-03-18T07:13:44.728Z,68.65
2023-03-18T07:16:12.638Z,75.90
2023-03-18T07:18:42.715Z,67.28
2023-03-18T07:21:11.394Z,69.68
2023-03-18T07:23:41.150Z,66.28
2023-03-18T07:26:09.012Z,64.22
2023-03-18T07:28:36.858Z,80.10
2023-03-18T07:31:04.836Z,62.45
2023-03-18T07:33:33.222Z,70.40
2023-03-18T07:36:02.634Z,74.65
2023-03-18T07:38:30.945Z,68.15
2023-03-18T07:40:58.658Z,73.30
2023-03-18T07:43:27.315Z,75.63
2023-03-18T07:45:55.840Z,72.70
2023-03-18T07:48:23.571Z,75.18
2023-03-18T07:50:51.471Z,72.97
2023-03-18T07:53:21.134Z,68.13
2023-03-18T07:55:49.140Z,67.70
2023-03-18T07:58:16.920Z,65.72
2023-03-18T08:00:45.153Z,63.67
2023-03-18T08:03:13.983Z,66.75
2023-03-18T08:05:42.143Z,70.70
2023-03-18T08:08:10.087Z,74.35
2023-03-18T08:10:39.309Z,71.40
2023-03-18T08:13:07.137Z,72.90
2023-03-18T08:15:35.319Z,64.50
2023-03-18T08:18:03.253Z,71.25
2023-03-18T08:20:31.087Z,71.60
2023-03-18T08:22:59.177Z,64.43
2023-03-18T08:25:27.106Z,77.47
2023-03-18T08:27:56.652Z,70.82
2023-03-18T08:30:28.538Z,62.35
2023-03-18T08:32:57.414Z,71.32
2023-03-18T08:35:25.805Z,71.15
2023-03-18T08:37:54.426Z,63.58
2023-03-18T08:40:22.267Z,60.85
2023-03-18T08:42:50.105Z,71.10
2023-03-18T08:45:19.562Z,72.60
2023-03-18T08:47:47.409Z,61.85
2023-03-18T08:50:15.622Z,66.93
2023-03-18T08:52:43.421Z,66.97
2023-03-18T08:55:11.604Z,63.72
2023-03-18T08:57:39.755Z,65.43
2023-03-18T09:00:09.059Z,57.42
2023-03-18T09:02:38.311Z,65.97
2023-03-18T09:05:07.072Z,63.17
2023-03-18T09:07:35.314Z,70.82
2023-03-18T09:10:04.412Z,64.43
2023-03-18T09:12:32.199Z,62.15
2023-03-18T09:15:00.005Z,61.55
2023-03-18T09:17:45.280Z,69.53
2023-03-18T09:20:18.418Z,64.93
2023-03-18T09:22:46.935Z,66.40
2023-03-18T09:25:14.818Z,61.45
2023-03-18T09:27:43.904Z,69.88
2023-03-18T09:30:12.871Z,65.63
2023-03-18T09:32:41.172Z,65.10
2023-03-18T09:35:12.535Z,65.97
2023-03-18T09:37:42.222Z,71.40
2023-03-18T09:40:26.477Z,63.85
2023-03-18T09:43:03.711Z,61.45
2023-03-18T09:45:36.428Z,57.80
2023-03-18T09:48:30.839Z,57.88
2023-03-18T09:51:06.062Z,58.60
2023-03-18T09:53:44.452Z,58.35
2023-03-18T09:56:18.032Z,62.75
2023-03-18T09:58:51.186Z,57.30
2023-03-18T10:01:21.850Z,61.15
2023-03-18T10:03:54.624Z,59.88
2023-03-18T10:06:24.831Z,54.40
2023-03-18T10:09:02.451Z,48.85
2023-03-18T10:11:33.189Z,49.60
2023-03-18T10:14:21.181Z,56.10
2023-03-18T10:16:59.436Z,49.33
2023-03-18T10:19:28.184Z,56.08
2023-03-18T10:22:07.876Z,51.38
2023-03-18T10:24:40.590Z,52.90
2023-03-18T10:27:17.983Z,50.42
2023-03-18T10:29:51.088Z,46.05
2023-03-18T10:32:46.529Z,49.03
2023-03-18T10:35:27.281Z,45.38
2023-03-18T10:38:03.122Z,45.22
2023-03-18T10:40:38.719Z,50.15
2023-03-18T10:43:16.884Z,49.85
2023-03-18T10:45:47.106Z,46.95
2023-03-18T10:48:21.391Z,48.15
2023-03-18T10:51:07.547Z,49.38
2023-03-18T10:53:43.052Z,46.65
2023-03-18T10:56:14.597Z,48.60
2023-03-18T10:58:43.710Z,49.35
2023-03-18T11:01:17.194Z,48.17
2023-03-18T11:03:50.784Z,42.45
2023-03-18T11:06:25.236Z,41.40
2023-03-18T11:09:04.864Z,43.72
2023-03-18T11:11:36.125Z,48.50
2023-03-18T11:14:14.225Z,39.28
2023-03-18T11:16:49.538Z,44.70
2023-03-18T11:19:29.002Z,45.22
2023-03-18T11:22:15.402Z,49.00
2023-03-18T11:24:43.812Z,44.38
2023-03-18T11:27:29.063Z,51.65
2023-03-18T11:30:00.106Z,45.60
2023-03-18T11:32:31.153Z,50.03
2023-03-18T11:35:01.750Z,44.92
2023-03-18T11:37:34.773Z,47.03
2023-03-18T11:40:18.680Z,46.47
2023-03-18T11:42:49.554Z,49.33
2023-03-18T11:45:32.958Z,48.50
2023-03-18T11:48:01.674Z,47.90
2023-03-18T11:50:39.508Z,44.00
2023-03-18T11:53:14.834Z,46.20
2023-03-18T11:55:46.738Z,42.20
2023-03-18T11:58:42.480Z,48.95
2023-03-18T12:01:17.601Z,45.20
2023-03-18T12:03:57.604Z,42.95
2023-03-18T12:06:28.665Z,50.70
2023-03-18T12:09:05.013Z,55.15
2023-03-18T12:11:55.205Z,50.08
2023-03-18T12:14:32.640Z,44.97
2023-03-18T12:17:14.584Z,46.60
2023-03-18T12:20:02.882Z,46.80
2023-03-18T12:22:47.855Z,52.17
2023-03-18T12:25:31.509Z,44.95
2023-03-18T12:28:04.387Z,47.33
2023-03-18T12:30:50.847Z,50.78
2023-03-18T12:33:35.382Z,48.88
2023-03-18T12:36:15.113Z,44.92
2023-03-18T12:39:07.724Z,46.03
2023-03-18T12:41:45.544Z,45.85
2023-03-18T12:44:29.049Z,49.88
2023-03-18T12:47:06.653Z,48.28
2023-03-18T12:49:38.832Z,43.50
2023-03-18T12:52:10.624Z,45.53
2023-03-18T12:54:44.293Z,50.95
2023-03-18T12:57:19.068Z,50.13
2023-03-18T12:59:56.711Z,48.13
2023-03-18T13:02:41.250Z,52.33
2023-03-18T13:05:24.578Z,53.45
2023-03-18T13:08:06.461Z,47.85
2023-03-18T13:10:37.595Z,50.95
2023-03-18T13:13:10.421Z,48.95
2023-03-18T13:15:42.740Z,48.38
2023-03-18T13:18:20.183Z,47.80
2023-03-18T13:20:50.205Z,48.65
2023-03-18T13:23:31.222Z,48.28
2023-03-18T13:26:09.755Z,54.35
2023-03-18T13:28:51.200Z,59.72
2023-03-18T13:31:31.286Z,56.72
2023-03-18T13:34:26.338Z,58.88
2023-03-18T13:37:08.500Z,52.42
2023-03-18T13:39:47.703Z,54.10
2023-03-18T13:42:26.510Z,54.97
2023-03-18T13:45:01.527Z,69.75
2023-03-18T13:47:33.045Z,64.05
2023-03-18T13:50:04.847Z,65.85
2023-03-18T13:52:42.005Z,67.88
2023-03-18T13:55:23.642Z,67.45
2023-03-18T13:57:57.938Z,75.10
2023-03-18T14:00:34.413Z,68.78
2023-03-18T14:03:06.979Z,60.88
2023-03-18T14:05:40.472Z,68.00
2023-03-18T14:08:47.384Z,60.53
2023-03-18T14:11:50.040Z,73.47
2023-03-18T14:15:06.070Z,59.42
2023-03-18T14:17:46.084Z,64.78
2023-03-18T14:20:27.261Z,59.47
2023-03-18T14:23:17.448Z,70.80
2023-03-18T14:25:49.396Z,64.97
2023-03-18T14:28:24.839Z,70.70
2023-03-18T14:31:15.030Z,62.40
2023-03-18T14:33:59.593Z,67.80
2023-03-18T14:36:49.159Z,59.70
2023-03-18T14:39:22.033Z,63.65
2023-03-18T14:41:54.583Z,65.25
2023-03-18T14:44:25.275Z,66.43
2023-03-18T14:46:58.228Z,68.10
2023-03-18T14:49:41.657Z,78.55
2023-03-18T14:52:28.782Z,75.35
2023-03-18T14:55:00.092Z,79.20
2023-03-18T14:57:28.477Z,69.68
2023-03-18T14:59:57.018Z,78.20
2023-03-18T15:02:28.723Z,71.30
2023-03-18T15:04:59.342Z,83.05
2023-03-18T15:07:35.362Z,71.03
2023-03-18T15:10:12.382Z,67.65
2023-03-18T15:12:40.478Z,66.72
2023-03-18T15:15:14.789Z,68.13
2023-03-18T15:17:47.608Z,68.25
2023-03-18T15:20:16.559Z,79.50
2023-03-18T15:22:44.968Z,69.55
2023-03-18T15:25:19.425Z,79.97
2023-03-18T15:27:48.220Z,74.18
2023-03-18T15:30:27.646Z,91.22
2023-03-18T15:33:04.127Z,75.35
2023-03-18T15:35:32.908Z,75.93
2023-03-18T15:38:14.629Z,94.10
2023-03-18T15:40:50.963Z,80.63
2023-03-18T15:43:26.987Z,76.20
2023-03-18T15:45:57.762Z,83.72
2023-03-18T15:48:31.951Z,68.82
2023-03-18T15:51:01.971Z,63.88
2023-03-18T15:53:34.585Z,68.13
2023-03-18T15:56:16.323Z,64.90
2023-03-18T15:58:45.104Z,73.65
2023-03-18T16:01:17.563Z,72.68
2023-03-18T16:03:47.472Z,68.68
2023-03-18T16:06:16.289Z,70.07
2023-03-18T16:08:46.009Z,70.68
2023-03-18T16:11:16.991Z,66.05
2023-03-18T16:13:46.892Z,68.68
2023-03-18T16:16:18.577Z,68.10
2023-03-18T16:18:46.715Z,67.38
2023-03-18T16:21:15.310Z,72.15
2023-03-18T16:23:43.384Z,66.57
2023-03-18T16:26:17.879Z,66.45
2023-03-18T16:28:48.331Z,89.30
2023-03-18T16:31:16.375Z,93.38
2023-03-18T16:33:46.332Z,81.30
2023-03-18T16:36:24.880Z,77.15
2023-03-18T16:38:52.873Z,74.20
2023-03-18T16:41:22.012Z,76.10
2023-03-18T16:43:50.310Z,83.03
2023-03-18T16:46:19.220Z,87.88
2023-03-18T16:48:49.316Z,74.28
2023-03-18T16:51:17.514Z,79.97
2023-03-18T16:53:45.257Z,76.10
2023-03-18T16:56:19.007Z,80.05
2023-03-18T16:58:48.316Z,81.45
2023-03-18T17:01:19.348Z,73.95
2023-03-18T17:03:48.153Z,85.50
2023-03-18T17:06:16.260Z,79.53
2023-03-18T17:08:44.612Z,76.45
2023-03-18T17:11:19.266Z,77.10
2023-03-18T17:13:48.735Z,96.43
2023-03-18T17:16:19.979Z,81.15
2023-03-18T17:18:48.174Z,95.25
2023-03-18T17:21:17.111Z,91.72
2023-03-18T17:23:45.706Z,87.05
2023-03-18T17:26:16.023Z,90.63
2023-03-18T17:28:46.881Z,194.25
2023-03-18T17:31:16.689Z,106.00
2023-03-18T17:33:47.370Z,95.80
2023-03-18T17:36:15.188Z,93.68
2023-03-18T17:38:43.024Z,99.32
2023-03-18T17:41:17.286Z,104.50
2023-03-18T17:43:45.152Z,111.10
2023-03-18T17:46:14.214Z,87.55
2023-03-18T17:48:44.040Z,94.50
2023-03-18T17:51:16.266Z,99.45
2023-03-18T17:53:46.179Z,128.40
2023-03-18T17:56:16.186Z,106.30
2023-03-18T17:58:45.649Z,116.07
2023-03-18T18:01:16.389Z,88.60
2023-03-18T18:03:45.567Z,108.30
2023-03-18T18:06:18.595Z,116.40
2023-03-18T18:08:46.997Z,115.40
2023-03-18T18:11:20.938Z,120.47
2023-03-18T18:13:49.893Z,99.78
2023-03-18T18:16:18.766Z,107.72
2023-03-18T18:18:49.875Z,114.20
2023-03-18T18:21:21.747Z,93.93
2023-03-18T18:23:49.801Z,108.60
2023-03-18T18:26:19.598Z,106.63
2023-03-18T18:28:49.449Z,103.22
2023-03-18T18:31:19.427Z,108.68
2023-03-18T18:33:50.464Z,100.45
2023-03-18T18:36:18.668Z,111.63
2023-03-18T18:38:46.819Z,164.77
2023-03-18T18:41:15.295Z,127.00
2023-03-18T18:43:43.118Z,142.88
2023-03-18T18:46:14.759Z,112.10
2023-03-18T18:48:44.612Z,116.97
2023-03-18T18:51:18.305Z,119.57
2023-03-18T18:53:47.542Z,107.85
2023-03-18T18:56:18.614Z,109.45
2023-03-18T18:58:47.139Z,109.70
2023-03-18T19:01:16.115Z,116.10
2023-03-18T19:03:44.208Z,115.03
2023-03-18T19:06:25.246Z,116.35
2023-03-18T19:08:54.628Z,118.00
2023-03-18T19:11:24.575Z,120.38
2023-03-18T19:13:53.753Z,190.00
2023-03-18T19:16:29.481Z,131.38
2023-03-18T19:18:57.377Z,109.03
2023-03-18T19:21:27.168Z,120.55
2023-03-18T19:23:55.178Z,131.95
2023-03-18T19:26:23.145Z,100.05
2023-03-18T19:29:01.338Z,128.88
2023-03-18T19:31:32.223Z,130.13
2023-03-18T19:34:02.131Z,190.40
2023-03-18T19:36:33.319Z,117.47
2023-03-18T19:39:03.054Z,107.40
2023-03-18T19:41:31.305Z,105.75
2023-03-18T19:44:04.073Z,126.00
2023-03-18T19:46:37.162Z,123.15
2023-03-18T19:49:12.921Z,200.55
2023-03-18T19:51:42.497Z,112.10
2023-03-18T19:54:23.698Z,110.43
2023-03-18T19:56:52.504Z,90.63
2023-03-18T19:59:23.224Z,102.72
2023-03-18T20:01:51.907Z,98.10
2023-03-18T20:04:21.564Z,120.57
2023-03-18T20:06:51.218Z,167.45
2023-03-18T20:09:19.192Z,126.63
2023-03-18T20:11:50.678Z,114.65
2023-03-18T20:14:25.512Z,126.40
2023-03-18T20:16:53.864Z,113.28
2023-03-18T20:19:21.777Z,136.02
2023-03-18T20:21:51.024Z,124.40
2023-03-18T20:24:24.444Z,204.45
2023-03-18T20:26:52.334Z,115.43
2023-03-18T20:29:24.058Z,117.57
2023-03-18T20:31:52.026Z,123.05
2023-03-18T20:34:19.921Z,171.13
2023-03-18T20:36:47.785Z,90.22
2023-03-18T20:39:21.623Z,108.40
2023-03-18T20:41:50.541Z,157.38
2023-03-18T20:44:18.307Z,103.47
2023-03-18T20:46:46.193Z,101.78
2023-03-18T20:49:14.139Z,127.55
2023-03-18T20:51:42.520Z,136.82
2023-03-18T20:54:19.740Z,162.85
2023-03-18T20:56:48.026Z,145.27
2023-03-18T20:59:16.070Z,148.50
2023-03-18T21:01:44.353Z,148.32
2023-03-18T21:04:13.869Z,139.68
2023-03-18T21:06:42.238Z,173.32
2023-03-18T21:09:12.310Z,192.27
2023-03-18T21:11:41.724Z,202.07
2023-03-18T21:14:15.711Z,255.15
2023-03-18T21:16:43.663Z,178.52
2023-03-18T21:19:12.608Z,147.18
2023-03-18T21:21:41.207Z,154.38
2023-03-18T21:24:23.649Z,417.15
2023-03-18T21:27:03.710Z,256.58
2023-03-18T21:29:32.356Z,475.38
2023-03-18T21:32:02.520Z,766.42
2023-03-18T21:34:30.509Z,577.85
2023-03-18T21:36:58.479Z,502.88
2023-03-18T21:39:26.415Z,255.18
2023-03-18T21:41:55.656Z,487.70
2023-03-18T21:44:23.410Z,245.90
2023-03-18T21:46:51.107Z,541.10
2023-03-18T21:49:18.946Z,185.15
2023-03-18T21:51:46.736Z,121.85
2023-03-18T21:54:18.752Z,168.40
2023-03-18T21:56:46.626Z,669.53
2023-03-18T21:59:15.960Z,363.80
2023-03-18T22:01:43.868Z,361.33
2023-03-18T22:04:12.515Z,235.70
2023-03-18T22:06:40.316Z,384.90
2023-03-18T22:09:08.722Z,592.38
2023-03-18T22:11:36.547Z,343.35
2023-03-18T22:14:04.286Z,473.70
2023-03-18T22:16:33.400Z,181.27
2023-03-18T22:19:01.449Z,402.20
2023-03-18T22:21:29.421Z,402.98
2023-03-18T22:23:58.239Z,497.65
2023-03-18T22:26:26.130Z,222.00
2023-03-18T22:28:53.964Z,129.85
2023-03-18T22:31:24.444Z,266.85
2023-03-18T22:33:54.497Z,122.10
2023-03-18T22:36:23.767Z,151.85
2023-03-18T22:38:51.826Z,264.83
2023-03-18T22:41:22.057Z,116.22
2023-03-18T22:43:50.489Z,109.95
2023-03-18T22:46:19.096Z,376.15
2023-03-18T22:48:47.040Z,725.58
2023-03-18T22:51:23.551Z,169.20
2023-03-18T22:53:53.631Z,445.67
2023-03-18T22:56:22.750Z,229.60
2023-03-18T22:58:51.352Z,408.00
2023-03-18T23:01:21.691Z,113.35
2023-03-18T23:03:50.546Z,645.50
2023-03-18T23:06:23.702Z,543.58
2023-03-18T23:08:51.635Z,534.97
2023-03-18T23:11:19.819Z,126.97
2023-03-18T23:13:49.886Z,167.55
2023-03-18T23:16:21.037Z,520.60
2023-03-18T23:18:49.371Z,432.90
2023-03-18T23:21:21.168Z,257.33
2023-03-18T23:23:49.232Z,142.57
2023-03-18T23:26:17.876Z,103.65
2023-03-18T23:28:46.083Z,156.65
2023-03-18T23:31:14.995Z,379.33
2023-03-18T23:33:43.354Z,326.02
2023-03-18T23:36:12.256Z,376.55
2023-03-18T23:38:41.848Z,90.05
2023-03-18T23:41:10.171Z,234.32
2023-03-18T23:43:38.028Z,245.32
2023-03-18T23:46:07.463Z,160.98
2023-03-18T23:48:35.824Z,137.95
2023-03-18T23:51:03.556Z,101.65
2023-03-18T23:53:31.407Z,133.77
2023-03-18T23:56:00.659Z,103.13
2023-03-18T23:58:28.496Z,123.22
